Flight Track Log - Related Links

Times and Time Zones

All times are in EDT time to prevent confusion due to time zone crossing. See the N72AG flight status page for this flight to view local times or setup timezone preferences in your user account.

Time Position Orientation Groundspeed Altitude Reporting Facility
EDT Latitude Longitude Course Direction KTS MPH feet Rate Location/Type
Fri 04:10:13 PM 28.1000 -80.6333 89° East 151 174 800  Level Orlando TRACON
Fri 04:11:37 PM 28.1006 -80.5592 112° Southeast 217 250 4,600 1,708 Climbing Miami Center
Fri 04:12:37 PM 28.0772 -80.4925 127° Southeast 224 258 4,900 150 Climbing Miami Center
Fri 04:13:37 PM 28.0350 -80.4300 135° Southeast 235 270 4,900 850 Level Miami Center
Fri 04:14:37 PM 27.9864 -80.3744 126° Southeast 245 282 6,600 1,650 Climbing Miami Center
Fri 04:15:37 PM 27.9461 -80.3119 95° East 245 282 8,200 1,650 Climbing Miami Center
Fri 04:16:37 PM 27.9397 -80.2319 160° South 235 270 9,900 850 Climbing Miami Center
Fri 04:17:37 PM 27.8733 -80.2042 174° South 222 255 9,900 50 Level Miami Center
Fri 04:18:37 PM 27.7986 -80.1947 174° South 238 274 10,000  Climbing Miami Center
Fri 04:19:37 PM 27.7256 -80.1856 174° South 283 326 9,900 -50 Descending Miami Center
Fri 04:20:37 PM 27.6403 -80.1761 174° South 289 333 9,900  Level Miami Center
Fri 04:21:37 PM 27.5611 -80.1669 174° South 289 333 9,900  Level Miami Center
Fri 04:22:37 PM 27.4842 -80.1575 175° South 289 333 9,900 50 Level Miami Center
Fri 04:23:37 PM 27.4133 -80.1508 174° South 289 333 10,000  Climbing Miami Center
Fri 04:24:37 PM 27.3361 -80.1417 176° South 289 333 9,900 -100 Descending Miami Center
Fri 04:25:37 PM 27.2486 -80.1344 154° Southeast 284 327 9,800 -1,300 Descending Miami Center
Fri 04:26:37 PM 27.1806 -80.0975 157° South 274 315 7,300 -2,250 Descending Miami Center
Fri 04:27:37 PM 27.1144 -80.0653 157° South 269 310 5,300 -1,200 Descending Miami Center
Fri 04:28:37 PM 27.0525 -80.0358 156° South 269 310 4,900 -200 Descending Miami Center
Fri 04:29:37 PM 26.9844 -80.0011 194° South 274 315 4,900  Level Miami Center
Fri 04:30:37 PM 26.9086 -80.0225 218° Southwest 251 289 4,900  Level Miami Center
Fri 04:31:37 PM 26.8492 -80.0744 189° South 257 296 4,900 -525 Level Miami Center
Fri 04:35:57 PM 26.5344 -80.1308 183° South 239 275 2,100 -613 Descending Miami Center
Fri 04:37:10 PM 26.4550 -80.1356 182° South 237 273 1,500 -468 Descending Miami Center
Fri 04:38:18 PM 26.3883 -80.1383 146° Southeast 200 230 1,000 -634 Descending Miami Center
Fri 04:39:13 PM 26.3656 -80.1214 146° Southeast 134 154 200 -873 Descending Miami Center

Login

Don't have an account? Register now (free) for customized features, flight alerts, and more!